aviador You're here:

LRSM Decoded Metar

SATU MARE in ROMANIA
Report Time2018-05-25 20:30:00
UTC Time2018-05-25 20:44:24
Flight Rules vfr VFR
Wind130° at 04 kt
W.Decomp.*RWY 19: 1.8 kt HW 3.6 kt LCW
W.Rank130° ranks 7
Current wind is below 130° avg. (5.6)
Visibility9999 m
Phenomena:N/A
Clouds:Scattered 065 Hf
Broken 095 Hf
Expected CloudBase > 2,000 ft AGL from Temp-Dew spread
Ceiling9,500 ft
Temp20°C (ISA +6)
Dew Point15°C (73% RH)
QNH1018 hPa
Density Alt1,148 ft
Elevation407 ft
Report Wrong Elevation
Raw Report
METAR LRSM 252030Z AUTO 13004KT 9999 SCT065/// BKN095/// 20/15 Q1018
RERA=

Extra information for LRSM:More info

Metar Taf Metar & Taf Last 4 Metars F.Rules Stats Wind Profile Meteogram Temp Stats Airport Information Weather charts Add Link Nearby VenuesMetar ALERT Operation Metar Decoded Social comments